sensor_id;sensor_type;location;lat;lon;timestamp;pressure;altitude;pressure_sealevel;temperature;humidity
7180;BME280;3631;42.152;24.756;2023-10-09T00:02:05;84470.19;;;-144.30;43.24
7180;BME280;3631;42.152;24.756;2023-10-09T00:04:34;84458.25;;;-144.30;43.33
7180;BME280;3631;42.152;24.756;2023-10-09T00:07:02;84474.16;;;-144.30;43.55
7180;BME280;3631;42.152;24.756;2023-10-09T00:09:34;84480.13;;;-144.30;43.70
7180;BME280;3631;42.152;24.756;2023-10-09T00:12:13;84500.00;;;-144.30;43.90
7180;BME280;3631;42.152;24.756;2023-10-09T00:14:41;84529.81;;;-144.30;44.13
7180;BME280;3631;42.152;24.756;2023-10-09T00:17:14;84529.81;;;-144.30;44.23
7180;BME280;3631;42.152;24.756;2023-10-09T00:19:44;84505.94;;;-144.30;44.33
7180;BME280;3631;42.152;24.756;2023-10-09T00:22:12;84515.88;;;-144.30;44.40
7180;BME280;3631;42.152;24.756;2023-10-09T00:24:52;84454.28;;;-144.30;44.56
7180;BME280;3631;42.152;24.756;2023-10-09T00:27:37;84529.81;;;-144.30;44.71
7180;BME280;3631;42.152;24.756;2023-10-09T00:30:08;84529.81;;;-144.30;44.90
7180;BME280;3631;42.152;24.756;2023-10-09T00:32:37;84559.63;;;-144.30;45.15
7180;BME280;3631;42.152;24.756;2023-10-09T00:35:17;84589.41;;;-144.30;45.18
7180;BME280;3631;42.152;24.756;2023-10-09T00:38:03;84557.63;;;-144.30;45.08
7180;BME280;3631;42.152;24.756;2023-10-09T00:40:42;84537.75;;;-144.30;45.12
7180;BME280;3631;42.152;24.756;2023-10-09T00:43:13;84551.66;;;-144.30;45.23
7180;BME280;3631;42.152;24.756;2023-10-09T00:45:40;84547.69;;;-144.30;45.42
7180;BME280;3631;42.152;24.756;2023-10-09T00:48:10;84575.50;;;-144.30;45.58
7180;BME280;3631;42.152;24.756;2023-10-09T00:50:40;84581.47;;;-144.30;45.63
7180;BME280;3631;42.152;24.756;2023-10-09T00:53:17;84601.34;;;-144.30;45.59
7180;BME280;3631;42.152;24.756;2023-10-09T00:55:46;84605.31;;;-144.30;45.50
7180;BME280;3631;42.152;24.756;2023-10-09T00:58:21;84613.28;;;-144.30;45.41
7180;BME280;3631;42.152;24.756;2023-10-09T01:00:53;84593.41;;;-144.30;45.29
7180;BME280;3631;42.152;24.756;2023-10-09T01:03:20;84517.88;;;-144.30;44.97
7180;BME280;3631;42.152;24.756;2023-10-09T01:05:49;84621.22;;;-144.30;44.92
7180;BME280;3631;42.152;24.756;2023-10-09T01:08:22;84611.28;;;-144.30;44.93
7180;BME280;3631;42.152;24.756;2023-10-09T01:10:57;84571.53;;;-144.30;44.60
7180;BME280;3631;42.152;24.756;2023-10-09T01:13:34;84593.41;;;-144.30;44.51
7180;BME280;3631;42.152;24.756;2023-10-09T01:16:19;84573.53;;;-144.30;44.28
7180;BME280;3631;42.152;24.756;2023-10-09T01:18:48;84623.22;;;-144.30;43.82
7180;BME280;3631;42.152;24.756;2023-10-09T01:21:15;84625.19;;;-144.30;43.48
7180;BME280;3631;42.152;24.756;2023-10-09T01:23:45;84613.28;;;-144.30;43.16
7180;BME280;3631;42.152;24.756;2023-10-09T01:26:29;84565.56;;;-144.30;42.66
7180;BME280;3631;42.152;24.756;2023-10-09T01:28:59;84563.59;;;-144.30;42.66
7180;BME280;3631;42.152;24.756;2023-10-09T01:31:27;84599.34;;;-144.30;42.59
7180;BME280;3631;42.152;24.756;2023-10-09T01:34:03;84611.28;;;-144.30;42.65
7180;BME280;3631;42.152;24.756;2023-10-09T01:36:35;84601.34;;;-144.30;42.81
7180;BME280;3631;42.152;24.756;2023-10-09T01:39:06;84603.34;;;-144.30;42.76
7180;BME280;3631;42.152;24.756;2023-10-09T01:41:36;84585.44;;;-144.30;42.85
7180;BME280;3631;42.152;24.756;2023-10-09T01:44:11;84585.44;;;-144.30;43.33
7180;BME280;3631;42.152;24.756;2023-10-09T01:46:41;84613.28;;;-144.30;44.04
7180;BME280;3631;42.152;24.756;2023-10-09T01:49:10;84643.09;;;-144.30;44.42
7180;BME280;3631;42.152;24.756;2023-10-09T01:51:43;84617.25;;;-144.30;44.74
7180;BME280;3631;42.152;24.756;2023-10-09T01:54:12;84621.22;;;-144.30;45.01
7180;BME280;3631;42.152;24.756;2023-10-09T01:56:53;84664.94;;;-144.30;45.17
7180;BME280;3631;42.152;24.756;2023-10-09T01:59:21;84684.81;;;-144.30;45.37
7180;BME280;3631;42.152;24.756;2023-10-09T02:01:48;84674.88;;;-144.30;45.43
7180;BME280;3631;42.152;24.756;2023-10-09T02:04:20;84716.63;;;-144.30;45.51
7180;BME280;3631;42.152;24.756;2023-10-09T02:06:47;84704.69;;;-144.30;45.58
7180;BME280;3631;42.152;24.756;2023-10-09T02:09:18;84696.75;;;-144.30;45.67
7180;BME280;3631;42.152;24.756;2023-10-09T02:11:52;84700.72;;;-144.30;45.35
7180;BME280;3631;42.152;24.756;2023-10-09T02:14:19;84676.88;;;-144.30;45.86
7180;BME280;3631;42.152;24.756;2023-10-09T02:16:47;84712.66;;;-144.30;46.00
7180;BME280;3631;42.152;24.756;2023-10-09T02:19:43;84718.63;;;-144.30;46.36
7180;BME280;3631;42.152;24.756;2023-10-09T02:22:14;84720.59;;;-144.30;46.86
7180;BME280;3631;42.152;24.756;2023-10-09T02:24:43;84798.13;;;-144.30;48.92
7180;BME280;3631;42.152;24.756;2023-10-09T02:27:32;84861.72;;;-144.30;50.34
7180;BME280;3631;42.152;24.756;2023-10-09T02:30:19;84979.00;;;-144.30;51.41
7180;BME280;3631;42.152;24.756;2023-10-09T02:32:53;84965.06;;;-144.30;51.95
7180;BME280;3631;42.152;24.756;2023-10-09T02:35:33;85014.78;;;-144.30;52.25
7180;BME280;3631;42.152;24.756;2023-10-09T02:38:04;85116.16;;;-144.30;51.06
7180;BME280;3631;42.152;24.756;2023-10-09T02:40:40;85106.22;;;-144.30;51.15
7180;BME280;3631;42.152;24.756;2023-10-09T02:43:27;85118.13;;;-144.30;51.92
7180;BME280;3631;42.152;24.756;2023-10-09T02:45:59;85155.91;;;-144.30;52.51
7180;BME280;3631;42.152;24.756;2023-10-09T02:48:38;85173.78;;;-144.30;53.03
7180;BME280;3631;42.152;24.756;2023-10-09T02:51:09;85197.66;;;-144.30;54.08
7180;BME280;3631;42.152;24.756;2023-10-09T02:53:43;85209.56;;;-144.30;53.78
7180;BME280;3631;42.152;24.756;2023-10-09T02:56:15;85239.38;;;-144.30;54.13
7180;BME280;3631;42.152;24.756;2023-10-09T02:58:49;85265.22;;;-144.30;54.11
7180;BME280;3631;42.152;24.756;2023-10-09T03:01:16;85267.22;;;-144.30;53.60
7180;BME280;3631;42.152;24.756;2023-10-09T03:03:43;85267.22;;;-144.30;53.98
7180;BME280;3631;42.152;24.756;2023-10-09T03:06:14;85306.97;;;-144.30;53.84
7180;BME280;3631;42.152;24.756;2023-10-09T03:08:44;85261.25;;;-144.30;53.63
7180;BME280;3631;42.152;24.756;2023-10-09T03:11:14;85281.13;;;-144.30;54.08
7180;BME280;3631;42.152;24.756;2023-10-09T03:13:41;85297.03;;;-144.30;53.82
7180;BME280;3631;42.152;24.756;2023-10-09T03:16:10;85275.16;;;-144.30;54.16
7180;BME280;3631;42.152;24.756;2023-10-09T03:18:45;85265.22;;;-144.30;53.62
7180;BME280;3631;42.152;24.756;2023-10-09T03:21:14;85289.09;;;-144.30;53.97
7180;BME280;3631;42.152;24.756;2023-10-09T03:23:42;85291.06;;;-144.30;53.56
7180;BME280;3631;42.152;24.756;2023-10-09T03:26:10;85308.97;;;-144.30;53.82
7180;BME280;3631;42.152;24.756;2023-10-09T03:28:37;85312.94;;;-144.30;53.82
7180;BME280;3631;42.152;24.756;2023-10-09T03:31:04;85285.09;;;-144.30;53.71
7180;BME280;3631;42.152;24.756;2023-10-09T03:33:32;85295.06;;;-144.30;53.94
7180;BME280;3631;42.152;24.756;2023-10-09T03:35:59;85322.88;;;-144.30;54.21
7180;BME280;3631;42.152;24.756;2023-10-09T03:38:28;85344.75;;;-144.30;53.98
7180;BME280;3631;42.152;24.756;2023-10-09T03:41:01;85346.72;;;-144.30;54.26
7180;BME280;3631;42.152;24.756;2023-10-09T03:43:31;85344.75;;;-144.30;53.92
7180;BME280;3631;42.152;24.756;2023-10-09T03:46:03;85342.75;;;-144.30;53.67
7180;BME280;3631;42.152;24.756;2023-10-09T03:48:31;85314.94;;;-144.30;53.96
7180;BME280;3631;42.152;24.756;2023-10-09T03:51:01;85336.78;;;-144.30;53.84
7180;BME280;3631;42.152;24.756;2023-10-09T03:53:36;85348.72;;;-144.30;53.66
7180;BME280;3631;42.152;24.756;2023-10-09T03:56:05;85374.56;;;-144.30;53.83
7180;BME280;3631;42.152;24.756;2023-10-09T03:58:38;85380.53;;;-144.30;54.54
7180;BME280;3631;42.152;24.756;2023-10-09T04:01:07;85396.44;;;-144.30;55.37
7180;BME280;3631;42.152;24.756;2023-10-09T04:03:36;85378.53;;;-144.30;57.55
7180;BME280;3631;42.152;24.756;2023-10-09T04:06:04;85342.75;;;-144.30;57.11
7180;BME280;3631;42.152;24.756;2023-10-09T04:08:36;85328.84;;;-144.30;54.63
7180;BME280;3631;42.152;24.756;2023-10-09T04:11:10;85350.72;;;-144.30;53.90
7180;BME280;3631;42.152;24.756;2023-10-09T04:13:42;85322.88;;;-144.30;54.16
7180;BME280;3631;42.152;24.756;2023-10-09T04:16:11;85356.69;;;-144.30;53.00
7180;BME280;3631;42.152;24.756;2023-10-09T04:18:52;85368.59;;;-144.30;51.67
7180;BME280;3631;42.152;24.756;2023-10-09T04:21:21;85380.53;;;-144.30;51.38
7180;BME280;3631;42.152;24.756;2023-10-09T04:24:01;85406.38;;;-144.30;50.79
7180;BME280;3631;42.152;24.756;2023-10-09T04:26:46;85356.69;;;-144.30;50.40
7180;BME280;3631;42.152;24.756;2023-10-09T04:29:14;85406.38;;;-144.30;50.04
7180;BME280;3631;42.152;24.756;2023-10-09T04:31:44;85406.38;;;-144.30;49.89
7180;BME280;3631;42.152;24.756;2023-10-09T04:34:17;85396.44;;;-144.30;50.07
7180;BME280;3631;42.152;24.756;2023-10-09T04:36:55;85394.44;;;-144.30;50.00
7180;BME280;3631;42.152;24.756;2023-10-09T04:39:27;85432.22;;;-144.30;49.79
7180;BME280;3631;42.152;24.756;2023-10-09T04:42:11;85448.13;;;-144.30;50.38
7180;BME280;3631;42.152;24.756;2023-10-09T04:44:58;85418.31;;;-144.30;50.33
7180;BME280;3631;42.152;24.756;2023-10-09T04:47:43;85444.16;;;-144.30;50.12
7180;BME280;3631;42.152;24.756;2023-10-09T04:50:24;85410.34;;;-144.30;50.01
7180;BME280;3631;42.152;24.756;2023-10-09T04:53:07;85420.28;;;-144.30;49.92
7180;BME280;3631;42.152;24.756;2023-10-09T04:55:50;85404.38;;;-144.30;50.07
7180;BME280;3631;42.152;24.756;2023-10-09T04:58:29;85452.09;;;-144.30;49.10
7180;BME280;3631;42.152;24.756;2023-10-09T05:00:58;85420.28;;;-144.30;49.45
7180;BME280;3631;42.152;24.756;2023-10-09T05:03:39;85452.09;;;-144.30;49.12
7180;BME280;3631;42.152;24.756;2023-10-09T05:06:22;85408.34;;;-144.30;48.88
7180;BME280;3631;42.152;24.756;2023-10-09T05:09:20;85440.16;;;-144.30;48.47
7180;BME280;3631;42.152;24.756;2023-10-09T05:11:48;85470.00;;;-144.30;48.38
7180;BME280;3631;42.152;24.756;2023-10-09T05:14:41;85487.88;;;-144.30;48.15
7180;BME280;3631;42.152;24.756;2023-10-09T05:17:28;85428.25;;;-144.30;48.01
7180;BME280;3631;42.152;24.756;2023-10-09T05:19:54;85468.00;;;-144.30;47.77
7180;BME280;3631;42.152;24.756;2023-10-09T05:22:45;85499.81;;;-144.30;47.14
7180;BME280;3631;42.152;24.756;2023-10-09T05:25:23;85410.34;;;-144.30;46.38
7180;BME280;3631;42.152;24.756;2023-10-09T05:28:19;85436.19;;;-144.30;46.38
7180;BME280;3631;42.152;24.756;2023-10-09T05:30:56;85466.00;;;-144.30;46.10
7180;BME280;3631;42.152;24.756;2023-10-09T05:33:32;85444.16;;;-144.30;46.33
7180;BME280;3631;42.152;24.756;2023-10-09T05:36:00;85475.94;;;-144.30;45.97
7180;BME280;3631;42.152;24.756;2023-10-09T05:39:01;85448.13;;;-144.30;45.88
7180;BME280;3631;42.152;24.756;2023-10-09T05:41:42;85487.88;;;-144.30;46.31
7180;BME280;3631;42.152;24.756;2023-10-09T05:44:19;85444.16;;;-144.30;46.61
7180;BME280;3631;42.152;24.756;2023-10-09T05:47:03;85462.03;;;-144.30;46.93
7180;BME280;3631;42.152;24.756;2023-10-09T05:49:44;85460.03;;;-144.30;46.97
7180;BME280;3631;42.152;24.756;2023-10-09T05:52:21;85491.84;;;-144.30;46.38
7180;BME280;3631;42.152;24.756;2023-10-09T05:54:58;85348.72;;;-144.30;46.14
7180;BME280;3631;42.152;24.756;2023-10-09T05:57:48;85456.06;;;-144.30;45.66
7180;BME280;3631;42.152;24.756;2023-10-09T06:00:39;85396.44;;;-144.30;45.21
7180;BME280;3631;42.152;24.756;2023-10-09T06:03:23;85678.72;;;-144.30;44.78
7180;BME280;3631;42.152;24.756;2023-10-09T06:05:52;85320.91;;;-144.30;43.75
7180;BME280;3631;42.152;24.756;2023-10-09T06:08:31;85205.59;;;-144.30;42.19
7180;BME280;3631;42.152;24.756;2023-10-09T06:11:20;85199.63;;;-144.30;41.05
7180;BME280;3631;42.152;24.756;2023-10-09T06:14:05;85098.25;;;-144.30;40.12
7180;BME280;3631;42.152;24.756;2023-10-09T06:16:42;85173.78;;;-144.30;39.75
7180;BME280;3631;42.152;24.756;2023-10-09T06:19:09;85243.38;;;-144.30;40.14
7180;BME280;3631;42.152;24.756;2023-10-09T06:21:38;85316.91;;;-144.30;41.28
7180;BME280;3631;42.152;24.756;2023-10-09T06:24:06;85322.88;;;-144.30;41.90
7180;BME280;3631;42.152;24.756;2023-10-09T06:26:41;85316.91;;;-144.30;41.88
7180;BME280;3631;42.152;24.756;2023-10-09T06:29:17;85310.94;;;-144.30;42.58
7180;BME280;3631;42.152;24.756;2023-10-09T06:32:01;85404.38;;;-144.30;42.69
7180;BME280;3631;42.152;24.756;2023-10-09T06:34:50;85360.66;;;-144.30;43.05
7180;BME280;3631;42.152;24.756;2023-10-09T06:37:18;85438.19;;;-144.30;43.36
7180;BME280;3631;42.152;24.756;2023-10-09T06:39:45;85384.50;;;-144.30;43.45
7180;BME280;3631;42.152;24.756;2023-10-09T06:42:37;85368.59;;;-144.30;43.25
7180;BME280;3631;42.152;24.756;2023-10-09T06:45:10;85388.47;;;-144.30;43.44
7180;BME280;3631;42.152;24.756;2023-10-09T06:47:42;85402.41;;;-144.30;43.47
7180;BME280;3631;42.152;24.756;2023-10-09T06:50:19;85340.78;;;-144.30;43.34
7180;BME280;3631;42.152;24.756;2023-10-09T06:53:08;85404.38;;;-144.30;43.26
7180;BME280;3631;42.152;24.756;2023-10-09T06:55:51;85416.31;;;-144.30;43.53
7180;BME280;3631;42.152;24.756;2023-10-09T06:58:17;85372.56;;;-144.30;43.53
7180;BME280;3631;42.152;24.756;2023-10-09T07:00:51;85376.56;;;-144.30;43.31
7180;BME280;3631;42.152;24.756;2023-10-09T07:03:41;85364.63;;;-144.30;43.09
7180;BME280;3631;42.152;24.756;2023-10-09T07:06:19;85360.66;;;-144.30;43.14
7180;BME280;3631;42.152;24.756;2023-10-09T07:09:11;85303.00;;;-144.30;42.87
7180;BME280;3631;42.152;24.756;2023-10-09T07:11:47;85336.78;;;-144.30;42.41
7180;BME280;3631;42.152;24.756;2023-10-09T07:14:29;84957.13;;;-144.30;42.34
7180;BME280;3631;42.152;24.756;2023-10-09T07:17:27;85271.19;;;-144.30;42.01
7180;BME280;3631;42.152;24.756;2023-10-09T07:20:11;85259.28;;;-144.30;41.63
7180;BME280;3631;42.152;24.756;2023-10-09T07:23:00;85215.53;;;-144.30;41.07
7180;BME280;3631;42.152;24.756;2023-10-09T07:25:40;85201.63;;;-144.30;40.79
7180;BME280;3631;42.152;24.756;2023-10-09T07:28:09;85213.53;;;-144.30;40.79
7180;BME280;3631;42.152;24.756;2023-10-09T07:31:02;85177.75;;;-144.30;40.53
7180;BME280;3631;42.152;24.756;2023-10-09T07:33:29;85157.88;;;-144.30;40.43
7180;BME280;3631;42.152;24.756;2023-10-09T07:36:18;85165.84;;;-144.30;40.24
7180;BME280;3631;42.152;24.756;2023-10-09T07:39:00;85058.50;;;-144.30;40.10
7180;BME280;3631;42.152;24.756;2023-10-09T07:41:33;85143.97;;;-144.30;40.07
7180;BME280;3631;42.152;24.756;2023-10-09T07:44:04;85130.06;;;-144.30;39.97
7180;BME280;3631;42.152;24.756;2023-10-09T07:47:02;85114.16;;;-144.30;39.62
7180;BME280;3631;42.152;24.756;2023-10-09T07:49:48;85116.16;;;-144.30;39.67
7180;BME280;3631;42.152;24.756;2023-10-09T07:52:20;85122.09;;;-144.30;39.89
7180;BME280;3631;42.152;24.756;2023-10-09T07:54:51;85068.44;;;-144.30;40.01
7180;BME280;3631;42.152;24.756;2023-10-09T07:57:27;85090.31;;;-144.30;39.49
7180;BME280;3631;42.152;24.756;2023-10-09T08:00:05;85074.41;;;-144.30;39.73
7180;BME280;3631;42.152;24.756;2023-10-09T08:02:59;85062.47;;;-144.30;39.55
7180;BME280;3631;42.152;24.756;2023-10-09T08:05:27;85070.44;;;-144.30;39.29
7180;BME280;3631;42.152;24.756;2023-10-09T08:08:01;85108.19;;;-144.30;39.32
7180;BME280;3631;42.152;24.756;2023-10-09T08:10:41;85048.56;;;-144.30;39.62
7180;BME280;3631;42.152;24.756;2023-10-09T08:13:22;85090.31;;;-144.30;39.58
7180;BME280;3631;42.152;24.756;2023-10-09T08:16:06;85086.31;;;-144.30;39.30
7180;BME280;3631;42.152;24.756;2023-10-09T08:18:42;85082.34;;;-144.30;39.90
7180;BME280;3631;42.152;24.756;2023-10-09T08:21:10;85092.28;;;-144.30;40.01
7180;BME280;3631;42.152;24.756;2023-10-09T08:24:05;85078.38;;;-144.30;40.28
7180;BME280;3631;42.152;24.756;2023-10-09T08:26:52;85072.41;;;-144.30;40.28
7180;BME280;3631;42.152;24.756;2023-10-09T08:29:39;85070.44;;;-144.30;40.21
7180;BME280;3631;42.152;24.756;2023-10-09T08:32:11;85126.09;;;-144.30;40.41
7180;BME280;3631;42.152;24.756;2023-10-09T08:35:04;85058.50;;;-144.30;40.69
7180;BME280;3631;42.152;24.756;2023-10-09T08:37:44;85100.25;;;-144.30;40.86
7180;BME280;3631;42.152;24.756;2023-10-09T08:40:16;85112.16;;;-144.30;41.05
7180;BME280;3631;42.152;24.756;2023-10-09T08:42:52;85122.09;;;-144.30;41.18
7180;BME280;3631;42.152;24.756;2023-10-09T08:45:21;85145.97;;;-144.30;41.66
7180;BME280;3631;42.152;24.756;2023-10-09T08:47:50;85161.88;;;-144.30;41.68
7180;BME280;3631;42.152;24.756;2023-10-09T08:50:18;85102.22;;;-144.30;41.82
7180;BME280;3631;42.152;24.756;2023-10-09T08:52:45;85104.22;;;-144.30;41.71
7180;BME280;3631;42.152;24.756;2023-10-09T08:55:15;85134.03;;;-144.30;41.77
7180;BME280;3631;42.152;24.756;2023-10-09T08:57:43;85141.97;;;-144.30;41.48
7180;BME280;3631;42.152;24.756;2023-10-09T09:00:17;85106.22;;;-144.30;41.53
7180;BME280;3631;42.152;24.756;2023-10-09T09:02:47;85112.16;;;-144.30;41.59
7180;BME280;3631;42.152;24.756;2023-10-09T09:05:17;85098.25;;;-144.30;41.76
7180;BME280;3631;42.152;24.756;2023-10-09T09:07:44;85058.50;;;-144.30;41.71
7180;BME280;3631;42.152;24.756;2023-10-09T09:10:11;85072.41;;;-144.30;41.47
7180;BME280;3631;42.152;24.756;2023-10-09T09:12:47;84853.78;;;-144.30;41.65
7180;BME280;3631;42.152;24.756;2023-10-09T09:15:19;85066.44;;;-144.30;41.73
7180;BME280;3631;42.152;24.756;2023-10-09T09:17:47;85108.19;;;-144.30;42.13
7180;BME280;3631;42.152;24.756;2023-10-09T09:20:23;85026.69;;;-144.30;42.32
7180;BME280;3631;42.152;24.756;2023-10-09T09:22:54;85096.25;;;-144.30;42.83
7180;BME280;3631;42.152;24.756;2023-10-09T09:25:22;85098.25;;;-144.30;42.54
7180;BME280;3631;42.152;24.756;2023-10-09T09:27:52;85048.56;;;-144.30;42.49
7180;BME280;3631;42.152;24.756;2023-10-09T09:30:24;85062.47;;;-144.30;41.96
7180;BME280;3631;42.152;24.756;2023-10-09T09:32:57;85056.50;;;-144.30;42.11
7180;BME280;3631;42.152;24.756;2023-10-09T09:35:56;85012.78;;;-144.30;42.03
7180;BME280;3631;42.152;24.756;2023-10-09T09:38:26;85014.78;;;-144.30;41.83
7180;BME280;3631;42.152;24.756;2023-10-09T09:40:56;85038.63;;;-144.30;41.64
7180;BME280;3631;42.152;24.756;2023-10-09T09:43:29;85002.84;;;-144.30;41.70
7180;BME280;3631;42.152;24.756;2023-10-09T09:46:01;85026.69;;;-144.30;41.86
7180;BME280;3631;42.152;24.756;2023-10-09T09:48:37;84977.00;;;-144.30;41.55
7180;BME280;3631;42.152;24.756;2023-10-09T09:51:11;84988.94;;;-144.30;41.70
7180;BME280;3631;42.152;24.756;2023-10-09T09:53:39;85010.78;;;-144.30;41.54
7180;BME280;3631;42.152;24.756;2023-10-09T09:56:06;85004.84;;;-144.30;41.71
7180;BME280;3631;42.152;24.756;2023-10-09T09:58:43;84990.91;;;-144.30;41.52
7180;BME280;3631;42.152;24.756;2023-10-09T10:01:14;84975.00;;;-144.30;41.37
7180;BME280;3631;42.152;24.756;2023-10-09T10:03:50;85014.78;;;-144.30;41.36
7180;BME280;3631;42.152;24.756;2023-10-09T10:06:18;84996.88;;;-144.30;41.40
7180;BME280;3631;42.152;24.756;2023-10-09T10:08:48;84935.25;;;-144.30;41.42
7180;BME280;3631;42.152;24.756;2023-10-09T10:11:41;84982.97;;;-144.30;41.30
7180;BME280;3631;42.152;24.756;2023-10-09T10:14:11;85004.84;;;-144.30;41.47
7180;BME280;3631;42.152;24.756;2023-10-09T10:17:08;85006.81;;;-144.30;41.37
7180;BME280;3631;42.152;24.756;2023-10-09T10:20:02;85006.81;;;-144.30;41.28
7180;BME280;3631;42.152;24.756;2023-10-09T10:22:50;84971.03;;;-144.30;41.05
7180;BME280;3631;42.152;24.756;2023-10-09T10:25:32;84935.25;;;-144.30;40.98
7180;BME280;3631;42.152;24.756;2023-10-09T10:28:17;84927.31;;;-144.30;40.99
7180;BME280;3631;42.152;24.756;2023-10-09T10:30:55;84975.00;;;-144.30;40.94
7180;BME280;3631;42.152;24.756;2023-10-09T10:33:26;84943.22;;;-144.30;40.90
7180;BME280;3631;42.152;24.756;2023-10-09T10:35:53;84895.50;;;-144.30;40.86
7180;BME280;3631;42.152;24.756;2023-10-09T10:38:39;84967.06;;;-144.30;40.83
7180;BME280;3631;42.152;24.756;2023-10-09T10:41:15;84921.34;;;-144.30;40.40
7180;BME280;3631;42.152;24.756;2023-10-09T10:43:48;84871.66;;;-144.30;40.26
7180;BME280;3631;42.152;24.756;2023-10-09T10:46:24;84909.41;;;-144.30;40.61
7180;BME280;3631;42.152;24.756;2023-10-09T10:48:56;84901.47;;;-144.30;40.26
7180;BME280;3631;42.152;24.756;2023-10-09T10:51:26;84915.38;;;-144.30;40.33
7180;BME280;3631;42.152;24.756;2023-10-09T10:54:01;84931.28;;;-144.30;40.38
7180;BME280;3631;42.152;24.756;2023-10-09T10:56:42;84911.41;;;-144.30;40.11
7180;BME280;3631;42.152;24.756;2023-10-09T10:59:10;84923.34;;;-144.30;40.18
7180;BME280;3631;42.152;24.756;2023-10-09T11:01:40;84931.28;;;-144.30;40.13
7180;BME280;3631;42.152;24.756;2023-10-09T11:04:25;84923.34;;;-144.30;39.89
7180;BME280;3631;42.152;24.756;2023-10-09T11:07:04;84887.56;;;-144.30;39.97
7180;BME280;3631;42.152;24.756;2023-10-09T11:09:43;84927.31;;;-144.30;39.74
7180;BME280;3631;42.152;24.756;2023-10-09T11:12:24;84903.47;;;-144.30;39.74
7180;BME280;3631;42.152;24.756;2023-10-09T11:15:04;84901.47;;;-144.30;39.58
7180;BME280;3631;42.152;24.756;2023-10-09T11:17:36;84879.59;;;-144.30;39.66
7180;BME280;3631;42.152;24.756;2023-10-09T11:20:05;84899.47;;;-144.30;39.75
7180;BME280;3631;42.152;24.756;2023-10-09T11:22:46;84877.63;;;-144.30;39.90
7180;BME280;3631;42.152;24.756;2023-10-09T11:25:37;84839.84;;;-144.30;39.53
7180;BME280;3631;42.152;24.756;2023-10-09T11:28:18;84871.66;;;-144.30;39.38
7180;BME280;3631;42.152;24.756;2023-10-09T11:30:59;84877.63;;;-144.30;39.13
7180;BME280;3631;42.152;24.756;2023-10-09T11:33:44;84879.59;;;-144.30;39.01
7180;BME280;3631;42.152;24.756;2023-10-09T11:36:11;84871.66;;;-144.30;38.97
7180;BME280;3631;42.152;24.756;2023-10-09T11:38:37;84855.75;;;-144.30;38.81
7180;BME280;3631;42.152;24.756;2023-10-09T11:41:13;84708.66;;;-144.30;38.35
7180;BME280;3631;42.152;24.756;2023-10-09T11:43:50;84851.78;;;-144.30;38.93
7180;BME280;3631;42.152;24.756;2023-10-09T11:46:20;84825.94;;;-144.30;38.62
7180;BME280;3631;42.152;24.756;2023-10-09T11:49:08;84867.69;;;-144.30;38.68
7180;BME280;3631;42.152;24.756;2023-10-09T11:52:06;84845.81;;;-144.30;38.63
7180;BME280;3631;42.152;24.756;2023-10-09T11:54:50;84845.81;;;-144.30;38.68
7180;BME280;3631;42.152;24.756;2023-10-09T11:57:17;84843.84;;;-144.30;38.04
7180;BME280;3631;42.152;24.756;2023-10-09T11:59:43;84831.91;;;-144.30;37.97
7180;BME280;3631;42.152;24.756;2023-10-09T12:02:10;84851.78;;;-144.30;38.30
7180;BME280;3631;42.152;24.756;2023-10-09T12:04:40;84847.81;;;-144.30;38.12
7180;BME280;3631;42.152;24.756;2023-10-09T12:07:07;84798.13;;;-144.30;38.08
7180;BME280;3631;42.152;24.756;2023-10-09T12:09:36;84867.69;;;-144.30;37.75
7180;BME280;3631;42.152;24.756;2023-10-09T12:12:04;84810.03;;;-144.30;37.66
7180;BME280;3631;42.152;24.756;2023-10-09T12:14:31;84849.78;;;-144.30;37.47
7180;BME280;3631;42.152;24.756;2023-10-09T12:16:59;84819.97;;;-144.30;37.45
7180;BME280;3631;42.152;24.756;2023-10-09T12:19:32;84835.88;;;-144.30;37.32
7180;BME280;3631;42.152;24.756;2023-10-09T12:22:02;84823.94;;;-144.30;37.46
7180;BME280;3631;42.152;24.756;2023-10-09T12:24:29;84796.13;;;-144.30;37.47
7180;BME280;3631;42.152;24.756;2023-10-09T12:26:56;84782.22;;;-144.30;37.55
7180;BME280;3631;42.152;24.756;2023-10-09T12:29:24;84808.06;;;-144.30;37.28
7180;BME280;3631;42.152;24.756;2023-10-09T12:31:55;84802.09;;;-144.30;37.45
7180;BME280;3631;42.152;24.756;2023-10-09T12:34:25;84780.22;;;-144.30;37.54
7180;BME280;3631;42.152;24.756;2023-10-09T12:36:53;84772.28;;;-144.30;37.30
7180;BME280;3631;42.152;24.756;2023-10-09T12:39:22;84768.31;;;-144.30;37.08
7180;BME280;3631;42.152;24.756;2023-10-09T12:41:49;84792.16;;;-144.30;36.99
7180;BME280;3631;42.152;24.756;2023-10-09T12:44:19;84601.34;;;-144.30;36.87
7180;BME280;3631;42.152;24.756;2023-10-09T12:46:46;84784.19;;;-144.30;36.92
7180;BME280;3631;42.152;24.756;2023-10-09T12:49:18;84768.31;;;-144.30;37.08
7180;BME280;3631;42.152;24.756;2023-10-09T12:51:50;84774.25;;;-144.30;37.01
7180;BME280;3631;42.152;24.756;2023-10-09T12:54:18;84788.19;;;-144.30;37.04
7180;BME280;3631;42.152;24.756;2023-10-09T12:56:53;84732.53;;;-144.30;37.16
7180;BME280;3631;42.152;24.756;2023-10-09T12:59:20;84768.31;;;-144.30;37.29
7180;BME280;3631;42.152;24.756;2023-10-09T13:01:49;84768.31;;;-144.30;37.06
7180;BME280;3631;42.152;24.756;2023-10-09T13:04:23;84738.47;;;-144.30;36.85
7180;BME280;3631;42.152;24.756;2023-10-09T13:06:58;84744.44;;;-144.30;37.01
7180;BME280;3631;42.152;24.756;2023-10-09T13:09:28;84764.31;;;-144.30;36.60
7180;BME280;3631;42.152;24.756;2023-10-09T13:12:02;84748.44;;;-144.30;36.53
7180;BME280;3631;42.152;24.756;2023-10-09T13:14:32;84684.81;;;-144.30;36.48
7180;BME280;3631;42.152;24.756;2023-10-09T13:16:59;84786.19;;;-144.30;36.52
7180;BME280;3631;42.152;24.756;2023-10-09T13:19:33;84776.25;;;-144.30;36.26
7180;BME280;3631;42.152;24.756;2023-10-09T13:22:00;84778.25;;;-144.30;36.17
7180;BME280;3631;42.152;24.756;2023-10-09T13:24:29;84774.25;;;-144.30;36.09
7180;BME280;3631;42.152;24.756;2023-10-09T13:26:56;84808.06;;;-144.30;36.04
7180;BME280;3631;42.152;24.756;2023-10-09T13:29:26;84802.09;;;-144.30;35.93
7180;BME280;3631;42.152;24.756;2023-10-09T13:31:53;84778.25;;;-144.30;35.99